Time;durP1;ratioP1;P1;durP2;ratioP2;P2;SDS_P1;SDS_P2;PMS_P1;PMS_P2;Temp;Humidity;BMP_temperature;BMP_pressure;BME280_temperature;BME280_humidity;BME280_pressure;Samples;Min_cycle;Max_cycle;Signal;HPM_P1;HPM_P2
2022/10/24 00:01:21;;;;;;;7.25;2.00;;;18.10;69.90;;;;;;4800937;29;20051;-48
2022/10/24 00:03:49;;;;;;;5.25;1.30;;;18.10;69.70;;;;;;4799076;29;20047;-49
2022/10/24 00:06:17;;;;;;;3.58;1.98;;;18.10;69.70;;;;;;4806998;29;20552;-45
2022/10/24 00:08:44;;;;;;;3.65;2.38;;;18.10;69.70;;;;;;4821866;29;20529;-47
2022/10/24 00:11:21;;;;;;;5.68;1.98;;;18.10;69.60;;;;;;4808040;29;20055;-45
2022/10/24 00:13:48;;;;;;;3.63;2.00;;;18.10;69.40;;;;;;4804612;29;20409;-45
2022/10/24 00:16:15;;;;;;;4.55;2.10;;;18.10;69.50;;;;;;4806222;29;20043;-46
2022/10/24 00:18:46;;;;;;;4.05;1.90;;;18.10;69.30;;;;;;4810576;29;20047;-45
2022/10/24 00:21:13;;;;;;;5.25;2.10;;;18.10;69.20;;;;;;4803675;29;20050;-45
2022/10/24 00:23:40;;;;;;;4.82;2.65;;;18.10;69.20;;;;;;4799027;29;20433;-45
2022/10/24 00:26:07;;;;;;;3.85;2.15;;;18.10;69.10;;;;;;4806005;29;20046;-45
2022/10/24 00:28:37;;;;;;;7.68;2.67;;;18.10;69.10;;;;;;4803833;29;20449;-45
2022/10/24 00:31:11;;;;;;;4.75;1.90;;;18.10;69.10;;;;;;4803776;29;20109;-46
2022/10/24 00:33:37;;;;;;;5.50;3.58;;;18.10;68.90;;;;;;4803951;29;20058;-45
2022/10/24 00:36:04;;;;;;;5.63;2.28;;;18.10;68.80;;;;;;4804960;29;20051;-47
2022/10/24 00:38:31;;;;;;;6.35;2.53;;;18.10;68.60;;;;;;4801970;29;20062;-46
2022/10/24 00:41:00;;;;;;;3.45;2.10;;;18.10;68.60;;;;;;4805643;29;20078;-45
2022/10/24 00:43:26;;;;;;;3.72;1.83;;;18.20;68.70;;;;;;4804535;29;20047;-46
2022/10/24 00:46:01;;;;;;;5.53;2.55;;;18.20;68.50;;;;;;4804841;29;20043;-45
2022/10/24 00:48:59;;;;;;;4.63;2.17;;;18.20;68.00;;;;;;4797916;29;20209;-44
2022/10/24 00:51:32;;;;;;;3.75;2.30;;;18.20;67.90;;;;;;4804563;29;20066;-45
2022/10/24 00:54:03;;;;;;;4.35;1.85;;;18.30;67.70;;;;;;4804610;29;20051;-45
2022/10/24 00:56:34;;;;;;;6.53;3.03;;;18.30;67.50;;;;;;4803716;29;20054;-46
2022/10/24 00:59:06;;;;;;;4.30;1.73;;;18.30;67.30;;;;;;4801030;29;20480;-46
2022/10/24 01:01:33;;;;;;;2.55;1.92;;;18.40;67.30;;;;;;4805141;29;20532;-45
2022/10/24 01:04:00;;;;;;;2.83;1.52;;;18.40;66.90;;;;;;4804757;29;20043;-45
2022/10/24 01:06:33;;;;;;;3.17;1.60;;;18.50;66.70;;;;;;4801690;29;20082;-46
2022/10/24 01:09:17;;;;;;;;;;;18.50;66.30;;;;;;4803892;29;20130;-45
2022/10/24 01:11:52;;;;;;;3.15;1.38;;;18.60;66.80;;;;;;4805123;29;19956;-45
2022/10/24 01:14:44;;;;;;;2.70;1.45;;;18.70;65.90;;;;;;4803417;29;20051;-47
2022/10/24 01:17:20;;;;;;;3.25;1.45;;;18.70;65.40;;;;;;4800718;29;20039;-45
2022/10/24 01:20:18;;;;;;;8.05;1.67;;;18.70;65.40;;;;;;4803822;29;20149;-46
2022/10/24 01:23:16;;;;;;;5.47;2.47;;;18.70;65.00;;;;;;4797392;29;20451;-45
2022/10/24 01:26:26;;;;;;;4.82;1.60;;;18.80;64.80;;;;;;4801625;29;20126;-45
2022/10/24 01:29:15;;;;;;;2.47;1.23;;;18.80;64.70;;;;;;4803737;29;20050;-45
2022/10/24 01:31:48;;;;;;;2.65;1.50;;;18.80;64.60;;;;;;4804755;29;20050;-44
2022/10/24 01:34:24;;;;;;;6.22;1.50;;;18.80;65.00;;;;;;4801951;29;20047;-47
2022/10/24 01:37:05;;;;;;;1.90;1.20;;;18.70;64.50;;;;;;4803704;29;20167;-46
2022/10/24 01:39:37;;;;;;;3.17;1.45;;;18.70;64.60;;;;;;4804342;29;20497;-47
2022/10/24 01:42:06;;;;;;;1.95;1.02;;;18.70;64.90;;;;;;4802739;29;20050;-46
2022/10/24 01:44:40;;;;;;;3.25;1.20;;;18.70;64.90;;;;;;4800600;29;20454;-45
2022/10/24 01:47:15;;;;;;;4.45;1.40;;;18.60;64.70;;;;;;4803880;29;20121;-47
2022/10/24 01:49:49;;;;;;;1.50;1.13;;;18.60;64.50;;;;;;4804042;29;20051;-48
2022/10/24 01:52:17;;;;;;;1.95;1.35;;;18.60;64.70;;;;;;4800522;29;20500;-46
2022/10/24 01:54:46;;;;;;;2.72;1.35;;;18.50;64.80;;;;;;4801441;29;20055;-45
2022/10/24 01:57:16;;;;;;;2.30;1.60;;;18.50;64.80;;;;;;4804356;29;20042;-46
2022/10/24 01:59:46;;;;;;;2.55;1.40;;;18.50;64.90;;;;;;4803033;29;20058;-45
2022/10/24 02:02:20;;;;;;;2.22;1.50;;;18.40;64.80;;;;;;4799711;29;20039;-47
2022/10/24 02:04:52;;;;;;;3.85;1.60;;;18.40;64.80;;;;;;4802872;29;20043;-45
2022/10/24 02:07:20;;;;;;;;;;;18.40;64.80;;;;;;4809799;29;20497;-45
2022/10/24 02:09:51;;;;;;;2.80;1.20;;;18.40;65.00;;;;;;4803695;29;20302;-46
2022/10/24 02:12:19;;;;;;;4.00;1.30;;;18.40;64.80;;;;;;4798825;29;20523;-47
2022/10/24 02:14:54;;;;;;;5.18;1.50;;;18.30;64.90;;;;;;4802043;29;20047;-44
2022/10/24 02:17:24;;;;;;;2.95;1.13;;;18.30;64.70;;;;;;4808107;29;20053;-48
2022/10/24 02:19:51;;;;;;;3.28;1.35;;;18.30;64.90;;;;;;4813832;29;20106;-45
2022/10/24 02:22:42;;;;;;;1.42;1.20;;;18.30;64.90;;;;;;4796689;29;20053;-48
2022/10/24 02:25:33;;;;;;;2.95;1.30;;;18.30;64.80;;;;;;4803443;29;20583;-45
2022/10/24 02:28:20;;;;;;;4.97;1.95;;;18.30;64.40;;;;;;4801671;29;20051;-45
2022/10/24 02:31:20;;;;;;;1.40;1.02;;;18.40;64.40;;;;;;4801865;29;20053;-48
2022/10/24 02:33:52;;;;;;;4.30;1.67;;;18.40;64.20;;;;;;4794156;29;20062;-46
2022/10/24 02:36:26;;;;;;;3.00;1.63;;;18.40;64.40;;;;;;4801506;29;20069;-48
2022/10/24 02:38:54;;;;;;;2.40;1.50;;;18.40;64.20;;;;;;4802647;29;20050;-45
2022/10/24 02:41:26;;;;;;;2.63;1.20;;;18.50;64.20;;;;;;4798491;29;20685;-46
2022/10/24 02:43:54;;;;;;;3.05;1.23;;;18.50;63.80;;;;;;4801823;29;20412;-46
2022/10/24 02:46:23;;;;;;;2.53;1.05;;;18.50;63.90;;;;;;4803774;29;20084;-44
2022/10/24 02:48:57;;;;;;;1.55;1.23;;;18.50;63.70;;;;;;4799818;29;20130;-44
2022/10/24 02:51:28;;;;;;;5.25;2.00;;;18.50;63.40;;;;;;4800867;29;20497;-48
2022/10/24 02:53:58;;;;;;;1.92;1.33;;;18.60;63.30;;;;;;4802501;29;20069;-44
2022/10/24 02:56:29;;;;;;;1.75;1.20;;;18.60;63.30;;;;;;4803496;29;20085;-48
2022/10/24 02:58:55;;;;;;;2.00;0.88;;;18.60;63.20;;;;;;4797944;29;20059;-45
2022/10/24 03:01:22;;;;;;;1.80;0.98;;;18.60;63.10;;;;;;4800662;29;20474;-45
2022/10/24 03:03:49;;;;;;;1.67;1.52;;;18.60;62.90;;;;;;4801920;29;20426;-45
2022/10/24 03:06:16;;;;;;;2.42;0.90;;;18.60;62.80;;;;;;4805768;29;20047;-45
2022/10/24 03:08:43;;;;;;;6.90;1.90;;;18.60;62.60;;;;;;4800649;29;20791;-49
2022/10/24 03:11:10;;;;;;;1.52;1.02;;;18.60;62.50;;;;;;4803542;29;20054;-49
2022/10/24 03:13:36;;;;;;;9.15;1.15;;;18.60;62.60;;;;;;4801685;29;20062;-45
2022/10/24 03:16:03;;;;;;;2.55;2.25;;;18.60;62.30;;;;;;4803282;29;20057;-45
2022/10/24 03:18:39;;;;;;;6.47;1.20;;;18.60;62.30;;;;;;4797155;29;20429;-46
2022/10/24 03:21:09;;;;;;;1.10;0.80;;;18.70;62.40;;;;;;4803323;29;20053;-46
2022/10/24 03:23:38;;;;;;;2.22;0.98;;;18.70;62.20;;;;;;4795923;29;20050;-47
2022/10/24 03:26:06;;;;;;;3.08;1.23;;;18.70;62.20;;;;;;4803255;29;20053;-49
2022/10/24 03:28:33;;;;;;;5.25;1.10;;;18.70;62.20;;;;;;4802749;29;20069;-46
2022/10/24 03:31:00;;;;;;;2.97;1.85;;;18.70;62.10;;;;;;4801162;29;20047;-45
2022/10/24 03:33:26;;;;;;;2.40;0.73;;;18.70;62.00;;;;;;4800988;29;20513;-45
2022/10/24 03:35:56;;;;;;;2.00;0.85;;;18.70;62.00;;;;;;4802414;29;20051;-46
2022/10/24 03:38:30;;;;;;;5.18;1.00;;;18.70;61.90;;;;;;4798463;29;20640;-45
2022/10/24 03:40:56;;;;;;;3.20;1.27;;;18.70;62.60;;;;;;4803119;29;20058;-45
2022/10/24 03:43:26;;;;;;;5.22;1.00;;;18.70;61.90;;;;;;4804188;29;20668;-46
2022/10/24 03:45:55;;;;;;;5.80;1.70;;;18.70;61.90;;;;;;4803617;29;20452;-45
2022/10/24 03:48:26;;;;;;;2.78;1.17;;;18.70;61.80;;;;;;4805376;29;20043;-46
2022/10/24 03:50:53;;;;;;;6.15;1.42;;;18.70;61.70;;;;;;4806349;29;20051;-46
2022/10/24 03:53:20;;;;;;;4.80;1.30;;;18.60;61.70;;;;;;4802865;29;20047;-45
2022/10/24 03:55:46;;;;;;;3.17;1.08;;;18.60;61.80;;;;;;4802952;29;20061;-47
2022/10/24 03:58:13;;;;;;;2.50;1.08;;;18.60;61.70;;;;;;4805249;29;20057;-45
2022/10/24 04:00:41;;;;;;;3.30;1.05;;;18.60;61.80;;;;;;4806234;29;20471;-46
2022/10/24 04:03:10;;;;;;;3.28;0.98;;;18.60;61.90;;;;;;4805414;29;20436;-45
2022/10/24 04:05:39;;;;;;;1.75;1.00;;;18.60;61.70;;;;;;4800880;29;20061;-44
2022/10/24 04:08:06;;;;;;;2.80;0.95;;;18.60;61.70;;;;;;4812153;29;20047;-45
2022/10/24 04:10:33;;;;;;;3.38;1.20;;;18.60;61.90;;;;;;4806145;29;20047;-46
2022/10/24 04:12:59;;;;;;;3.08;0.75;;;18.60;61.90;;;;;;4800205;29;20510;-46
2022/10/24 04:15:26;;;;;;;5.88;1.00;;;18.60;62.50;;;;;;4801272;29;20058;-47
2022/10/24 04:17:54;;;;;;;2.25;1.13;;;18.60;61.90;;;;;;4801032;29;20054;-45
2022/10/24 04:20:23;;;;;;;3.00;1.10;;;18.60;61.90;;;;;;4803944;29;20117;-45
2022/10/24 04:22:57;;;;;;;2.05;0.80;;;18.50;61.90;;;;;;4798706;29;20075;-46
2022/10/24 04:25:27;;;;;;;3.55;2.08;;;18.50;62.00;;;;;;4800680;29;20126;-45
2022/10/24 04:27:56;;;;;;;4.53;1.20;;;18.50;62.00;;;;;;4803237;29;20089;-45
2022/10/24 04:30:29;;;;;;;1.20;0.80;;;18.50;62.00;;;;;;4802456;29;20103;-46
2022/10/24 04:32:56;;;;;;;4.28;0.90;;;18.50;62.10;;;;;;4801655;29;20590;-45
2022/10/24 04:35:24;;;;;;;2.25;1.15;;;18.50;62.10;;;;;;4801812;29;20054;-46
2022/10/24 04:37:53;;;;;;;2.30;2.10;;;18.50;62.10;;;;;;4803237;29;20046;-46
2022/10/24 04:40:20;;;;;;;1.92;0.85;;;18.50;62.10;;;;;;4803553;29;20492;-46
2022/10/24 04:42:47;;;;;;;1.23;0.82;;;18.40;62.10;;;;;;4800680;29;20420;-45
2022/10/24 04:45:14;;;;;;;2.40;0.88;;;18.40;62.10;;;;;;4802763;29;20058;-45
2022/10/24 04:47:40;;;;;;;1.90;0.80;;;18.40;62.20;;;;;;4803570;29;20047;-45
2022/10/24 04:50:10;;;;;;;1.80;0.98;;;18.40;62.30;;;;;;4802663;29;20073;-46
2022/10/24 04:52:39;;;;;;;1.27;0.70;;;18.40;62.40;;;;;;4801139;29;20050;-45
2022/10/24 04:55:06;;;;;;;2.65;0.90;;;18.40;62.20;;;;;;4804285;29;20042;-45
2022/10/24 04:57:35;;;;;;;3.85;1.25;;;18.40;62.40;;;;;;4817489;24;20062;-48
2022/10/24 05:00:04;;;;;;;2.28;1.00;;;18.40;62.30;;;;;;4801351;29;20461;-49
2022/10/24 05:02:31;;;;;;;2.30;0.80;;;18.40;62.30;;;;;;4805116;29;20046;-47
2022/10/24 05:04:57;;;;;;;4.68;0.95;;;18.40;62.40;;;;;;4804582;29;20063;-47
2022/10/24 05:07:24;;;;;;;2.92;0.90;;;18.40;62.40;;;;;;4807163;29;20049;-47
2022/10/24 05:09:50;;;;;;;2.08;1.10;;;18.40;62.40;;;;;;4800977;29;20053;-50
2022/10/24 05:12:17;;;;;;;2.75;0.90;;;18.40;62.40;;;;;;4800417;29;20042;-50
2022/10/24 05:14:46;;;;;;;3.67;1.15;;;18.40;62.50;;;;;;4803834;29;20084;-49
2022/10/24 05:17:15;;;;;;;3.88;1.45;;;18.40;62.40;;;;;;4805896;29;20052;-54
2022/10/24 05:19:42;;;;;;;4.18;0.88;;;18.30;62.50;;;;;;4796722;29;20146;-53
2022/10/24 05:22:14;;;;;;;1.55;1.00;;;18.30;62.50;;;;;;4802375;29;20127;-52
2022/10/24 05:24:43;;;;;;;3.97;1.50;;;18.30;62.50;;;;;;4803055;29;20055;-53
2022/10/24 05:27:09;;;;;;;3.15;1.55;;;18.30;62.50;;;;;;4799982;29;20129;-49
2022/10/24 05:29:36;;;;;;;2.72;1.02;;;18.30;62.50;;;;;;4802102;29;20051;-53
2022/10/24 05:32:06;;;;;;;3.70;1.25;;;18.30;62.60;;;;;;4810144;29;20069;-51
2022/10/24 05:34:33;;;;;;;2.28;0.88;;;18.20;62.50;;;;;;4800485;29;20055;-54
2022/10/24 05:37:01;;;;;;;1.65;0.90;;;18.20;62.70;;;;;;4802577;29;20541;-54
2022/10/24 05:39:37;;;;;;;2.58;0.80;;;18.20;62.70;;;;;;4799913;29;20065;-51
2022/10/24 05:42:04;;;;;;;1.33;0.70;;;18.20;62.60;;;;;;4802732;29;20055;-54
2022/10/24 05:44:30;;;;;;;2.35;1.10;;;18.20;62.60;;;;;;4802889;29;20043;-51
2022/10/24 05:47:02;;;;;;;3.13;1.20;;;18.20;62.60;;;;;;4803159;29;20138;-51
2022/10/24 05:49:29;;;;;;;2.25;0.80;;;18.20;62.60;;;;;;4799217;29;20055;-54
2022/10/24 05:51:56;;;;;;;4.53;1.48;;;18.20;62.60;;;;;;4802435;29;20058;-53
2022/10/24 05:54:28;;;;;;;2.80;0.90;;;18.20;62.60;;;;;;4810451;29;20085;-54
2022/10/24 05:57:16;;;;;;;2.60;1.55;;;18.20;62.70;;;;;;4799453;29;20053;-54
2022/10/24 05:59:43;;;;;;;3.35;0.80;;;18.20;62.70;;;;;;4802772;29;20125;-50
2022/10/24 06:02:18;;;;;;;2.92;1.00;;;18.20;62.70;;;;;;4795292;29;20076;-51
2022/10/24 06:04:49;;;;;;;5.10;0.95;;;18.10;62.50;;;;;;4784279;29;20075;-52
2022/10/24 06:07:17;;;;;;;3.17;0.82;;;18.10;62.70;;;;;;4793762;29;20042;-52
2022/10/24 06:09:45;;;;;;;1.63;0.70;;;18.10;62.70;;;;;;4803135;29;20531;-52
2022/10/24 06:12:17;;;;;;;3.08;1.25;;;18.20;62.80;;;;;;4802643;29;20053;-52
2022/10/24 06:14:44;;;;;;;2.33;0.70;;;18.20;62.70;;;;;;4790622;29;20054;-53
2022/10/24 06:17:13;;;;;;;3.50;1.73;;;18.20;62.80;;;;;;4802622;29;20919;-51
2022/10/24 06:19:40;;;;;;;2.70;0.93;;;18.20;62.70;;;;;;4809667;29;20061;-52
2022/10/24 06:22:08;;;;;;;4.57;1.45;;;18.20;62.70;;;;;;4811733;29;20727;-54
2022/10/24 06:24:37;;;;;;;3.10;1.02;;;18.30;62.80;;;;;;4798631;29;20061;-54
2022/10/24 06:27:04;;;;;;;2.53;0.75;;;18.20;62.70;;;;;;4798420;29;20133;-54
2022/10/24 06:29:32;;;;;;;4.22;0.90;;;18.20;62.70;;;;;;4807904;29;20043;-50
2022/10/24 06:31:59;;;;;;;4.43;0.90;;;18.20;62.70;;;;;;4801773;29;20039;-54
2022/10/24 06:34:29;;;;;;;2.25;0.85;;;18.20;62.80;;;;;;4800813;29;20074;-53
2022/10/24 06:36:56;;;;;;;2.58;0.80;;;18.20;62.80;;;;;;4800525;29;20039;-53
2022/10/24 06:39:26;;;;;;;5.25;1.42;;;18.30;63.00;;;;;;4800281;29;20065;-54
2022/10/24 06:41:57;;;;;;;5.60;1.15;;;18.30;62.80;;;;;;4800557;29;20066;-54
2022/10/24 06:44:25;;;;;;;4.13;1.58;;;18.40;62.70;;;;;;4797733;29;20043;-52
2022/10/24 06:47:04;;;;;;;4.90;1.20;;;18.40;62.50;;;;;;4800228;29;20050;-55
2022/10/24 06:49:36;;;;;;;1.95;1.17;;;18.40;62.40;;;;;;4801041;29;20115;-55
2022/10/24 06:52:06;;;;;;;2.28;1.13;;;18.40;62.30;;;;;;4800510;29;20053;-54
2022/10/24 06:54:34;;;;;;;3.72;1.38;;;18.40;62.30;;;;;;4799176;29;20071;-53
2022/10/24 06:57:06;;;;;;;5.40;2.13;;;18.40;62.30;;;;;;4801456;29;20045;-55
2022/10/24 06:59:33;;;;;;;3.97;1.60;;;18.50;62.30;;;;;;4801056;29;20070;-54
2022/10/24 07:01:59;;;;;;;5.75;1.30;;;18.50;62.20;;;;;;4799499;29;20055;-54
2022/10/24 07:04:31;;;;;;;7.55;1.73;;;18.50;62.30;;;;;;4797645;29;20425;-52
2022/10/24 07:07:00;;;;;;;5.45;1.17;;;18.50;62.20;;;;;;4802990;29;20050;-53
2022/10/24 07:09:27;;;;;;;2.55;1.00;;;18.50;62.20;;;;;;4802496;29;20067;-50
2022/10/24 07:11:56;;;;;;;3.00;1.20;;;18.50;62.10;;;;;;4797703;29;20517;-51
2022/10/24 07:14:24;;;;;;;2.78;1.10;;;18.50;62.10;;;;;;4801769;29;20118;-51
2022/10/24 07:16:54;;;;;;;2.55;0.80;;;18.50;62.10;;;;;;4804687;29;20411;-54
2022/10/24 07:19:22;;;;;;;3.15;0.90;;;18.50;62.20;;;;;;4815559;29;20057;-52
2022/10/24 07:21:52;;;;;;;6.30;1.10;;;18.50;62.10;;;;;;4795974;29;20130;-53
2022/10/24 07:24:21;;;;;;;3.15;1.00;;;18.50;62.20;;;;;;4804681;29;20044;-52
2022/10/24 07:26:48;;;;;;;1.85;0.88;;;18.50;62.10;;;;;;4806094;29;20057;-54
2022/10/24 07:29:14;;;;;;;3.25;1.40;;;18.50;62.30;;;;;;4805408;29;20043;-54
2022/10/24 07:31:43;;;;;;;2.60;1.20;;;18.50;63.00;;;;;;4801213;29;20058;-54
2022/10/24 07:34:12;;;;;;;6.67;2.70;;;18.60;62.40;;;;;;4801382;29;20063;-53
2022/10/24 07:36:39;;;;;;;3.38;1.45;;;18.60;62.40;;;;;;4805736;29;20680;-53
2022/10/24 07:39:10;;;;;;;4.60;1.10;;;18.70;62.40;;;;;;4799803;29;20062;-51
2022/10/24 07:41:41;;;;;;;4.15;0.93;;;18.70;62.40;;;;;;4800017;29;20420;-51
2022/10/24 07:44:09;;;;;;;4.85;1.55;;;18.70;62.30;;;;;;4804487;29;20038;-53
2022/10/24 07:46:41;;;;;;;5.22;2.17;;;18.70;62.40;;;;;;4805457;29;20050;-54
2022/10/24 07:49:08;;;;;;;4.57;1.40;;;18.70;62.20;;;;;;4800154;29;20342;-51
2022/10/24 07:51:35;;;;;;;4.65;1.55;;;18.80;62.50;;;;;;4804992;29;20054;-51
2022/10/24 07:54:01;;;;;;;2.85;1.13;;;18.80;62.40;;;;;;4804453;29;20051;-54
2022/10/24 07:56:28;;;;;;;2.95;1.38;;;18.90;62.40;;;;;;4807497;29;20082;-51
2022/10/24 07:58:55;;;;;;;3.10;1.10;;;18.90;62.20;;;;;;4799781;29;20058;-54
2022/10/24 08:01:26;;;;;;;3.92;0.80;;;19.00;62.00;;;;;;4801878;29;20057;-54
2022/10/24 08:03:54;;;;;;;3.53;1.13;;;19.00;61.90;;;;;;4804753;29;20572;-51
2022/10/24 08:06:23;;;;;;;4.90;1.20;;;19.00;61.70;;;;;;4823922;29;20050;-51
2022/10/24 08:08:58;;;;;;;4.50;1.25;;;19.10;61.70;;;;;;4808175;29;20103;-55
2022/10/24 08:11:27;;;;;;;2.95;0.85;;;19.10;61.80;;;;;;4803494;29;20059;-55
2022/10/24 08:13:56;;;;;;;4.35;1.20;;;19.20;61.70;;;;;;4803233;29;20126;-55
2022/10/24 08:16:24;;;;;;;3.25;1.25;;;19.20;61.50;;;;;;4800274;29;20043;-53
2022/10/24 08:18:56;;;;;;;3.60;1.17;;;19.20;61.40;;;;;;4801440;29;20066;-55
2022/10/24 08:21:26;;;;;;;4.15;1.42;;;19.30;61.30;;;;;;4817556;29;20070;-55
2022/10/24 08:23:54;;;;;;;4.90;1.30;;;19.30;61.20;;;;;;4805724;29;20043;-54
2022/10/24 08:26:24;;;;;;;3.08;0.90;;;19.30;61.10;;;;;;4805692;29;20062;-53
2022/10/24 08:28:54;;;;;;;5.10;1.60;;;19.40;61.10;;;;;;4801075;29;20130;-54
2022/10/24 08:31:24;;;;;;;3.78;2.28;;;19.40;61.10;;;;;;4816869;29;20125;-55
2022/10/24 08:33:53;;;;;;;4.88;1.38;;;19.50;61.00;;;;;;4809554;29;20046;-55
2022/10/24 08:36:26;;;;;;;2.50;1.20;;;19.50;61.10;;;;;;4802139;29;20046;-54
2022/10/24 08:38:53;;;;;;;4.35;1.20;;;19.60;60.90;;;;;;4796747;29;20417;-54
2022/10/24 08:41:31;;;;;;;5.57;1.00;;;19.60;60.90;;;;;;4822609;29;20057;-54
2022/10/24 08:44:06;;;;;;;2.33;1.13;;;19.60;60.70;;;;;;4821995;29;20114;-52
2022/10/24 08:46:39;;;;;;;6.65;1.15;;;19.70;60.80;;;;;;4810555;29;20047;-54
2022/10/24 08:49:37;;;;;;;5.82;1.50;;;19.70;60.40;;;;;;4803589;29;20051;-55
2022/10/24 08:52:20;;;;;;;2.92;1.10;;;19.70;60.20;;;;;;4805054;29;20047;-55
2022/10/24 08:54:47;;;;;;;4.80;1.40;;;19.80;60.50;;;;;;4800293;29;20057;-55
2022/10/24 08:57:23;;;;;;;3.17;1.10;;;19.80;60.30;;;;;;4803692;29;20058;-53
2022/10/24 08:59:58;;;;;;;3.58;1.00;;;19.90;60.10;;;;;;4799862;29;20512;-54
2022/10/24 09:02:36;;;;;;;4.43;0.90;;;19.80;60.00;;;;;;4806210;29;20057;-54
2022/10/24 09:05:13;;;;;;;7.85;1.63;;;19.90;60.10;;;;;;4799825;29;20047;-52
2022/10/24 09:07:46;;;;;;;3.72;0.88;;;19.90;60.00;;;;;;4816407;29;20062;-53
2022/10/24 09:10:31;;;;;;;5.72;1.20;;;19.90;60.10;;;;;;4822823;29;20125;-55
2022/10/24 09:13:01;;;;;;;7.70;1.95;;;20.00;59.80;;;;;;4812356;29;20036;-51
2022/10/24 09:15:31;;;;;;;5.00;1.15;;;20.00;59.90;;;;;;4804518;29;20061;-51
2022/10/24 09:18:00;;;;;;;3.92;1.02;;;20.10;59.80;;;;;;4812901;29;20054;-53
2022/10/24 09:20:31;;;;;;;5.05;1.55;;;20.10;59.50;;;;;;4814891;29;20058;-53
2022/10/24 09:23:02;;;;;;;4.10;1.40;;;20.20;59.70;;;;;;4811032;29;20054;-54
2022/10/24 09:25:33;;;;;;;4.70;1.73;;;20.20;59.50;;;;;;4800408;29;20594;-54
2022/10/24 09:28:04;;;;;;;9.85;1.55;;;20.30;59.40;;;;;;4809802;29;20427;-54
2022/10/24 09:30:34;;;;;;;6.47;1.10;;;20.40;58.80;;;;;;4814838;29;20117;-54
2022/10/24 09:33:32;;;;;;;5.43;1.63;;;20.50;58.90;;;;;;4796402;29;20038;-55
2022/10/24 09:36:03;;;;;;;7.97;1.75;;;20.50;58.60;;;;;;4803122;29;20110;-55
2022/10/24 09:38:36;;;;;;;7.53;1.40;;;20.50;58.30;;;;;;4803892;29;20093;-53
2022/10/24 09:41:21;;;;;;;4.00;1.02;;;20.60;58.70;;;;;;4804496;29;20053;-53
2022/10/24 09:43:53;;;;;;;5.00;1.65;;;20.70;58.50;;;;;;4796271;29;20523;-54
2022/10/24 09:46:33;;;;;;;4.53;1.13;;;20.70;58.60;;;;;;4799052;29;20042;-54
2022/10/24 09:49:11;;;;;;;5.75;1.45;;;20.70;58.30;;;;;;4805028;29;20126;-54
2022/10/24 09:51:48;;;;;;;3.47;1.40;;;20.80;58.20;;;;;;4798126;29;20155;-55
2022/10/24 09:54:18;;;;;;;5.13;1.20;;;20.80;58.00;;;;;;4803524;29;20043;-55
2022/10/24 09:57:14;;;;;;;5.43;1.73;;;20.80;57.60;;;;;;4801781;29;20051;-52
2022/10/24 09:59:56;;;;;;;3.20;1.38;;;20.80;57.30;;;;;;4788159;29;20149;-54
2022/10/24 10:02:28;;;;;;;6.63;1.85;;;20.80;57.60;;;;;;4800748;29;20118;-55
2022/10/24 10:05:01;;;;;;;7.45;1.65;;;20.80;57.40;;;;;;4804584;29;20092;-54
2022/10/24 10:07:31;;;;;;;5.43;1.38;;;20.90;57.30;;;;;;4814111;29;20074;-53
2022/10/24 10:10:06;;;;;;;2.85;1.20;;;20.90;57.40;;;;;;4800894;29;20042;-54
2022/10/24 10:12:37;;;;;;;6.15;1.17;;;20.80;57.30;;;;;;4799887;29;20462;-55
2022/10/24 10:15:34;;;;;;;5.68;1.05;;;20.80;57.40;;;;;;4804073;29;20066;-56
2022/10/24 10:18:05;;;;;;;5.15;1.33;;;20.80;57.30;;;;;;4807598;29;20051;-55
2022/10/24 10:20:39;;;;;;;5.45;1.25;;;20.80;57.50;;;;;;4801401;29;20049;-53
2022/10/24 10:23:32;;;;;;;3.38;1.08;;;20.80;57.70;;;;;;4803549;29;20043;-53
2022/10/24 10:26:06;;;;;;;3.65;1.50;;;20.80;57.50;;;;;;4804074;29;20057;-55
2022/10/24 10:28:40;;;;;;;3.25;1.85;;;20.80;57.60;;;;;;4796902;29;20049;-55
2022/10/24 10:31:09;;;;;;;4.97;1.20;;;20.80;57.80;;;;;;4800643;29;20822;-54
2022/10/24 10:33:50;;;;;;;7.32;2.47;;;20.80;57.90;;;;;;4803195;29;20043;-52
2022/10/24 10:36:35;;;;;;;6.03;1.67;;;20.80;57.90;;;;;;4811923;29;20454;-55
2022/10/24 10:39:25;;;;;;;6.95;2.35;;;20.80;57.80;;;;;;4807152;29;20523;-55
2022/10/24 10:42:19;;;;;;;3.42;1.58;;;20.90;58.20;;;;;;4804005;29;20094;-54
2022/10/24 10:44:54;;;;;;;4.65;1.13;;;21.00;58.00;;;;;;4800234;29;20515;-53
2022/10/24 10:47:50;;;;;;;4.80;1.75;;;21.10;57.50;;;;;;4800923;29;20050;-55
2022/10/24 10:50:27;;;;;;;5.70;2.13;;;21.20;56.50;;;;;;4803283;29;20043;-51
2022/10/24 10:53:21;;;;;;;6.25;1.30;;;21.20;56.30;;;;;;4802907;29;20069;-51
2022/10/24 10:56:28;;;;;;;5.95;1.83;;;21.20;56.50;;;;;;4797900;29;20048;-54
2022/10/24 10:59:04;;;;;;;5.25;1.60;;;21.20;56.40;;;;;;4800521;29;20067;-54
2022/10/24 11:01:50;;;;;;;5.38;1.85;;;21.30;56.40;;;;;;4803735;29;20054;-54
2022/10/24 11:04:22;;;;;;;5.82;1.45;;;21.30;56.30;;;;;;4829722;24;20085;-48
2022/10/24 11:07:17;;;;;;;5.20;1.38;;;21.30;56.40;;;;;;4808320;29;20556;-49
2022/10/24 11:09:46;;;;;;;5.45;1.27;;;21.30;56.20;;;;;;4802899;29;20107;-48
2022/10/24 11:12:35;;;;;;;2.85;1.05;;;21.20;57.10;;;;;;4802547;29;20062;-52
2022/10/24 11:15:09;;;;;;;5.13;1.70;;;21.20;56.00;;;;;;4783176;29;20062;-49
2022/10/24 11:17:44;;;;;;;5.72;1.60;;;21.20;56.30;;;;;;4781724;29;20074;-48
2022/10/24 11:20:38;;;;;;;3.95;1.63;;;21.20;56.20;;;;;;4776936;29;20089;-48
2022/10/24 11:23:28;;;;;;;3.88;1.33;;;21.20;56.30;;;;;;4783526;29;20126;-50
2022/10/24 11:26:17;;;;;;;6.65;1.55;;;21.20;56.40;;;;;;4781732;30;20681;-49
2022/10/24 11:29:10;;;;;;;6.18;1.40;;;21.20;56.20;;;;;;4783610;29;20058;-48
2022/10/24 11:31:46;;;;;;;7.65;1.33;;;21.20;55.90;;;;;;4785059;29;20126;-49
2022/10/24 11:34:34;;;;;;;5.63;1.63;;;21.20;56.00;;;;;;4784071;29;20131;-48
2022/10/24 11:37:17;;;;;;;5.35;1.30;;;21.20;56.00;;;;;;4784705;29;20539;-50
2022/10/24 11:40:10;;;;;;;5.40;1.27;;;21.20;55.80;;;;;;4783217;29;20051;-51
2022/10/24 11:42:55;;;;;;;4.88;1.73;;;21.20;56.20;;;;;;4784961;29;20047;-49
2022/10/24 11:46:12;;;;;;;7.78;1.20;;;21.20;56.10;;;;;;4780961;30;20043;-49
2022/10/24 11:48:55;;;;;;;3.67;1.65;;;21.20;56.30;;;;;;4800287;29;20628;-52
2022/10/24 11:51:37;;;;;;;4.10;1.27;;;21.20;55.80;;;;;;4800586;29;20067;-53
2022/10/24 11:54:32;;;;;;;2.45;1.48;;;21.20;56.00;;;;;;4786669;29;20532;-53
2022/10/24 11:57:03;;;;;;;6.50;1.80;;;21.10;55.80;;;;;;4785641;29;20048;-53
2022/10/24 11:59:30;;;;;;;7.72;1.70;;;21.10;56.30;;;;;;4784781;29;20043;-52
2022/10/24 12:02:27;;;;;;;7.97;2.08;;;21.10;56.50;;;;;;4784646;29;20066;-53
2022/10/24 12:05:25;;;;;;;5.55;1.45;;;21.10;56.10;;;;;;4787611;29;20401;-53
2022/10/24 12:08:13;;;;;;;12.82;3.00;;;21.20;56.30;;;;;;4789177;29;20047;-53
2022/10/24 12:10:57;;;;;;;3.45;1.05;;;21.20;56.50;;;;;;4788422;29;20429;-53
2022/10/24 12:14:01;;;;;;;6.18;1.13;;;21.20;56.40;;;;;;4787470;29;20128;-53
2022/10/24 12:16:42;;;;;;;7.22;1.60;;;21.20;56.20;;;;;;4803696;29;20050;-53
2022/10/24 12:19:13;;;;;;;4.82;1.65;;;21.20;56.60;;;;;;4792104;29;20534;-53
2022/10/24 12:21:51;;;;;;;6.50;1.80;;;21.10;57.30;;;;;;4788948;29;20190;-52
2022/10/24 12:24:29;;;;;;;4.88;1.73;;;21.20;58.70;;;;;;4786529;29;20051;-52
2022/10/24 12:27:06;;;;;;;4.47;1.83;;;21.20;58.10;;;;;;4788312;29;20039;-53
2022/10/24 12:29:35;;;;;;;4.40;1.25;;;21.20;57.90;;;;;;4786050;29;20048;-53
2022/10/24 12:32:29;;;;;;;5.07;0.97;;;21.20;57.90;;;;;;4787639;29;20050;-53
2022/10/24 12:35:00;;;;;;;5.05;1.38;;;21.20;57.60;;;;;;4786738;30;20296;-53
2022/10/24 12:37:48;;;;;;;4.47;1.80;;;21.20;57.50;;;;;;4787972;29;20058;-51
2022/10/24 12:40:44;;;;;;;5.85;1.27;;;21.20;57.70;;;;;;4787011;29;20121;-53
2022/10/24 12:43:15;;;;;;;3.90;1.25;;;21.20;57.30;;;;;;4787483;29;20504;-53
2022/10/24 12:45:42;;;;;;;5.57;1.38;;;21.20;57.40;;;;;;4793556;29;20057;-53
2022/10/24 12:48:23;;;;;;;6.78;1.60;;;21.20;58.00;;;;;;4805633;29;20043;-52
2022/10/24 12:50:57;;;;;;;4.55;1.63;;;21.20;57.40;;;;;;4785624;29;20058;-53
2022/10/24 12:54:02;;;;;;;4.65;1.40;;;21.30;57.50;;;;;;4787224;29;20596;-53
2022/10/24 12:56:31;;;;;;;2.15;1.00;;;21.50;58.10;;;;;;4787889;29;20047;-50
2022/10/24 12:59:22;;;;;;;5.20;1.40;;;21.50;57.60;;;;;;4785587;30;20047;-53
2022/10/24 13:02:12;;;;;;;2.75;0.98;;;21.70;56.80;;;;;;4787889;29;20591;-49
2022/10/24 13:04:42;;;;;;;4.82;0.95;;;21.80;57.00;;;;;;4786787;29;20465;-53
2022/10/24 13:07:33;;;;;;;3.65;1.00;;;21.90;57.20;;;;;;4796500;29;20074;-50
2022/10/24 13:10:20;;;;;;;2.92;1.00;;;22.00;56.00;;;;;;4786090;30;20051;-53
2022/10/24 13:13:11;;;;;;;3.97;0.80;;;22.10;55.60;;;;;;4785985;29;20059;-53
2022/10/24 13:15:56;;;;;;;5.13;1.02;;;22.20;54.50;;;;;;4786751;29;20474;-53
2022/10/24 13:18:25;;;;;;;4.30;1.15;;;22.20;54.80;;;;;;4785134;29;20051;-52
2022/10/24 13:21:32;;;;;;;3.28;0.80;;;22.20;54.60;;;;;;4791472;29;20055;-51
2022/10/24 13:24:24;;;;;;;4.35;1.10;;;22.20;54.90;;;;;;4801734;29;20067;-53